Podhale (bahama Islands) — C6TX9 — position and weather

sailwx.info

Track history (hours):
 
Tides and Currents Weather Stations Pressure Air Temp Water Temp Dewpoint Dewpoint Depression Visibility Wind Speed Wind Dir Waves Ship Positions

Podhale (bahama Islands)

Last reported at 2017-Oct-13 03:22 UTC. Time now 2017-Oct-17 13:17 UTC.
Position N 30°36' W 079°13'.

Length 190 m; beam 24 m.

Type: Cargo ship. MMSI: 311831000.

Date/timePositionNaut miles runAvg speedWind from/ knotsBaromVisibWave heightAir tempDewpointWater temp
2017-Oct-13 03:22N 30°36' W 079°13'513.8
2017-Oct-13 03:00N 30°37' W 079°19'1413.8
2017-Oct-13 02:00N 30°41' W 079°35'713.8
2017-Oct-13 01:30N 30°42' W 079°42'713.6
2017-Oct-13 01:01N 30°44' W 079°50'  
2017-Oct-06 18:25N 26°20' W 079°21'512.7
2017-Oct-06 18:00N 26°15' W 079°23'714.8
2017-Oct-06 17:31N 26°08' W 079°26'714.8
2017-Oct-06 17:00N 26°01' W 079°29'815.1
2017-Oct-06 16:30N 25°53' W 079°30'815.1
2017-Oct-06 16:00N 25°46' W 079°31'815.1
2017-Oct-06 15:30N 25°38' W 079°31'715.0
2017-Oct-06 15:00N 25°31' W 079°32'  
Track history (hours):
 
Tides and Currents Weather Stations Pressure Air Temp Water Temp Dewpoint Dewpoint Depression Visibility Wind Speed Wind Dir Waves Ship Positions

Podhale (bahama Islands)

Last reported at 2017-Oct-13 03:22 UTC. Time now 2017-Oct-17 13:17 UTC.
Position N 30°36' W 079°13'.

Length 190 m; beam 24 m.

Type: Cargo ship. MMSI: 311831000.

Date/timePositionNaut miles runAvg speedWind from/ knotsBaromVisibWave heightAir tempDewpointWater temp
2017-Oct-13 03:22N 30°36' W 079°13'513.8
2017-Oct-13 03:00N 30°37' W 079°19'1413.8
2017-Oct-13 02:00N 30°41' W 079°35'713.8
2017-Oct-13 01:30N 30°42' W 079°42'713.6
2017-Oct-13 01:01N 30°44' W 079°50'  
2017-Oct-06 18:25N 26°20' W 079°21'512.7
2017-Oct-06 18:00N 26°15' W 079°23'714.8
2017-Oct-06 17:31N 26°08' W 079°26'714.8
2017-Oct-06 17:00N 26°01' W 079°29'815.1
2017-Oct-06 16:30N 25°53' W 079°30'815.1
2017-Oct-06 16:00N 25°46' W 079°31'815.1
2017-Oct-06 15:30N 25°38' W 079°31'715.0
2017-Oct-06 15:00N 25°31' W 079°32'  

Dump ship's entire track history